Time;durP1;ratioP1;P1;durP2;ratioP2;P2;SDS_P1;SDS_P2;PMS_P1;PMS_P2;Temp;Humidity;BMP_temperature;BMP_pressure;BME280_temperature;BME280_humidity;BME280_pressure;Samples;Min_cycle;Max_cycle;Signal;HPM_P1;HPM_P2
2021/11/25 00:00:39;;;;;;;14.07;8.48;;;7.00;99.90;;;;;;5014314;28;20037;-74
2021/11/25 00:03:05;;;;;;;14.13;8.93;;;7.00;99.90;;;;;;5021837;28;20037;-74
2021/11/25 00:05:32;;;;;;;17.13;8.73;;;7.00;99.90;;;;;;5020356;28;20187;-74
2021/11/25 00:07:58;;;;;;;14.73;9.02;;;7.00;99.90;;;;;;5018824;28;20032;-74
2021/11/25 00:10:23;;;;;;;12.82;8.77;;;7.00;99.90;;;;;;5014766;28;20396;-74
2021/11/25 00:12:52;;;;;;;17.00;10.60;;;6.90;99.90;;;;;;5018022;28;20038;-74
2021/11/25 00:15:18;;;;;;;13.48;8.25;;;6.90;99.90;;;;;;5024984;28;20088;-74
2021/11/25 00:17:44;;;;;;;15.57;8.85;;;6.90;99.90;;;;;;5027555;28;20030;-73
2021/11/25 00:20:12;;;;;;;13.82;8.60;;;6.90;99.90;;;;;;5012689;28;20038;-74
2021/11/25 00:22:38;;;;;;;16.13;8.88;;;6.90;99.90;;;;;;5024202;28;20104;-73
2021/11/25 00:25:05;;;;;;;15.65;9.50;;;6.90;99.90;;;;;;5019166;28;20041;-73
2021/11/25 00:27:31;;;;;;;15.38;9.52;;;6.90;99.90;;;;;;5023146;28;20097;-73
2021/11/25 00:29:57;;;;;;;17.63;9.63;;;6.90;99.90;;;;;;5020347;28;20050;-74
2021/11/25 00:32:22;;;;;;;15.30;8.90;;;6.80;99.90;;;;;;5005181;28;20026;-74
2021/11/25 00:34:48;;;;;;;15.90;9.65;;;6.80;99.90;;;;;;5007347;28;20064;-74
2021/11/25 00:37:14;;;;;;;14.57;8.63;;;6.80;99.90;;;;;;5015051;28;20037;-74
2021/11/25 00:39:40;;;;;;;13.73;9.05;;;6.80;99.90;;;;;;5017608;28;20121;-73
2021/11/25 00:42:06;;;;;;;16.65;9.10;;;6.80;99.90;;;;;;5016910;28;20484;-73
2021/11/25 00:44:32;;;;;;;16.83;9.55;;;6.80;99.90;;;;;;5022089;28;20025;-74
2021/11/25 00:46:58;;;;;;;17.33;10.15;;;6.80;99.90;;;;;;5017249;28;20030;-74
2021/11/25 00:49:24;;;;;;;15.30;9.63;;;6.80;99.90;;;;;;5022253;28;20036;-73
2021/11/25 00:51:50;;;;;;;16.60;10.02;;;6.80;99.90;;;;;;5021221;28;20053;-73
2021/11/25 00:54:15;;;;;;;15.80;9.50;;;6.80;99.90;;;;;;5008497;28;20025;-74
2021/11/25 00:56:41;;;;;;;15.48;9.27;;;6.80;99.90;;;;;;5018465;28;20038;-74
2021/11/25 00:59:07;;;;;;;16.75;9.65;;;6.80;99.90;;;;;;5020327;28;20037;-73
2021/11/25 01:01:34;;;;;;;19.35;10.60;;;6.80;99.90;;;;;;5023626;28;20060;-74
2021/11/25 01:04:00;;;;;;;17.55;10.38;;;6.80;99.90;;;;;;5023356;28;20026;-74
2021/11/25 01:06:26;;;;;;;15.65;9.80;;;6.80;99.90;;;;;;5020290;28;20034;-74
2021/11/25 01:08:52;;;;;;;16.58;10.20;;;6.80;99.90;;;;;;5014907;28;20025;-74
2021/11/25 01:11:21;;;;;;;18.83;10.75;;;6.70;99.90;;;;;;4994961;28;20555;-74
2021/11/25 01:13:47;;;;;;;18.98;9.65;;;6.70;99.90;;;;;;5009518;28;20565;-74
2021/11/25 01:16:13;;;;;;;16.83;9.88;;;6.80;99.90;;;;;;5016167;28;20030;-74
2021/11/25 01:18:39;;;;;;;15.20;9.23;;;6.80;99.90;;;;;;5019381;28;20037;-73
2021/11/25 01:21:04;;;;;;;15.35;9.80;;;6.80;99.90;;;;;;5015197;28;20392;-74
2021/11/25 01:23:30;;;;;;;15.85;10.10;;;6.80;99.90;;;;;;5014345;28;20018;-73
2021/11/25 01:25:57;;;;;;;17.25;10.85;;;6.90;99.90;;;;;;5016051;28;20101;-74
2021/11/25 01:28:25;;;;;;;15.70;9.35;;;6.90;99.90;;;;;;5020849;28;20483;-73
2021/11/25 01:30:53;;;;;;;15.48;9.35;;;6.90;99.90;;;;;;5012872;28;20064;-74
2021/11/25 01:33:20;;;;;;;16.65;10.07;;;6.90;99.90;;;;;;5016896;28;20100;-75
2021/11/25 01:35:47;;;;;;;18.33;10.23;;;6.90;99.90;;;;;;5014154;28;20044;-74
2021/11/25 01:38:13;;;;;;;18.40;10.52;;;6.90;99.90;;;;;;5016403;28;20053;-74
2021/11/25 01:40:41;;;;;;;18.13;10.65;;;6.90;99.90;;;;;;5016683;28;20113;-75
2021/11/25 01:43:08;;;;;;;15.00;9.73;;;6.80;99.90;;;;;;5015997;28;20037;-74
2021/11/25 01:45:34;;;;;;;17.77;10.52;;;6.90;99.90;;;;;;5012930;28;20029;-73
2021/11/25 01:48:01;;;;;;;19.83;11.77;;;6.90;99.90;;;;;;5017965;28;20487;-73
2021/11/25 01:50:28;;;;;;;14.55;9.20;;;6.90;99.90;;;;;;5021247;28;20029;-74
2021/11/25 01:52:54;;;;;;;16.38;10.05;;;7.00;99.90;;;;;;5012736;28;20052;-74
2021/11/25 01:55:22;;;;;;;16.90;10.43;;;6.90;99.90;;;;;;5019861;28;20388;-74
2021/11/25 01:57:50;;;;;;;16.67;9.75;;;7.00;99.90;;;;;;5020889;28;20555;-74
2021/11/25 02:00:31;;;;;;;15.90;9.57;;;7.00;99.90;;;;;;5014355;28;20037;-74
2021/11/25 02:02:58;;;;;;;19.03;10.93;;;7.00;99.90;;;;;;5010719;28;20087;-73
2021/11/25 02:05:24;;;;;;;16.40;10.30;;;7.00;99.90;;;;;;5022231;28;20666;-74
2021/11/25 02:07:50;;;;;;;21.90;11.90;;;7.00;99.90;;;;;;5014484;28;20026;-74
2021/11/25 02:10:16;;;;;;;19.55;10.48;;;7.00;99.90;;;;;;5017741;28;20372;-73
2021/11/25 02:12:42;;;;;;;20.48;10.50;;;6.90;99.90;;;;;;5015741;28;20036;-75
2021/11/25 02:15:10;;;;;;;15.65;9.77;;;6.90;99.90;;;;;;5016819;28;20034;-73
2021/11/25 02:17:36;;;;;;;18.90;10.98;;;6.90;99.90;;;;;;5026439;28;20614;-73
2021/11/25 02:20:05;;;;;;;17.92;10.52;;;6.90;99.90;;;;;;5018906;28;20029;-74
2021/11/25 02:22:31;;;;;;;17.73;10.48;;;6.90;99.90;;;;;;5012952;28;20034;-73
2021/11/25 02:24:57;;;;;;;19.10;11.18;;;6.90;99.90;;;;;;5023624;28;20026;-73
2021/11/25 02:27:23;;;;;;;18.42;10.93;;;6.80;99.90;;;;;;4994700;28;20044;-74
2021/11/25 02:29:49;;;;;;;17.67;10.77;;;6.80;99.90;;;;;;5016583;28;20029;-74
2021/11/25 02:32:36;;;;;;;18.83;10.65;;;6.80;99.90;;;;;;5017133;28;20543;-74
2021/11/25 02:35:05;;;;;;;18.38;10.05;;;6.70;99.90;;;;;;5018036;28;20056;-73
2021/11/25 02:37:31;;;;;;;15.95;9.80;;;6.70;99.90;;;;;;5013659;28;20110;-74
2021/11/25 02:39:57;;;;;;;14.82;9.38;;;6.70;99.90;;;;;;5021167;28;20387;-74
2021/11/25 02:42:23;;;;;;;15.05;9.75;;;6.70;99.90;;;;;;5018821;28;20395;-73
2021/11/25 02:44:49;;;;;;;16.63;9.48;;;6.70;99.90;;;;;;5013642;28;20022;-73
2021/11/25 02:47:14;;;;;;;14.75;9.82;;;6.70;99.90;;;;;;5016789;28;20028;-73
2021/11/25 02:49:42;;;;;;;14.45;9.35;;;6.70;99.90;;;;;;5000798;28;20087;-73
2021/11/25 02:52:08;;;;;;;14.30;9.18;;;6.70;99.90;;;;;;5017595;28;20061;-74
2021/11/25 02:54:35;;;;;;;13.57;8.88;;;6.70;99.90;;;;;;5021329;28;20045;-73
2021/11/25 02:57:01;;;;;;;13.32;9.65;;;6.70;99.90;;;;;;4998083;28;20045;-73
2021/11/25 02:59:27;;;;;;;15.30;10.07;;;6.70;99.90;;;;;;5022973;28;20105;-73
2021/11/25 03:01:53;;;;;;;15.07;9.38;;;6.70;99.90;;;;;;5022782;28;20947;-73
2021/11/25 03:04:19;;;;;;;13.85;9.85;;;6.60;99.90;;;;;;5026907;28;20022;-73
2021/11/25 03:06:44;;;;;;;14.00;9.15;;;6.60;99.90;;;;;;5017408;28;20040;-73
2021/11/25 03:09:12;;;;;;;15.73;9.05;;;6.60;99.90;;;;;;5027370;28;20113;-74
2021/11/25 03:11:37;;;;;;;11.48;8.25;;;6.60;99.90;;;;;;5018563;28;21063;-74
2021/11/25 03:14:07;;;;;;;14.02;8.55;;;6.60;99.90;;;;;;5027290;28;20049;-73
2021/11/25 03:16:33;;;;;;;13.20;8.85;;;6.60;99.90;;;;;;5017654;28;20060;-74
2021/11/25 03:18:59;;;;;;;15.50;9.52;;;6.60;99.90;;;;;;5021968;28;20022;-74
2021/11/25 03:21:26;;;;;;;14.20;9.02;;;6.60;99.90;;;;;;5014495;28;20053;-74
2021/11/25 03:23:53;;;;;;;15.15;8.40;;;6.60;99.90;;;;;;5023229;28;20060;-74
2021/11/25 03:26:22;;;;;;;16.73;9.75;;;6.50;99.90;;;;;;5021120;28;20022;-74
2021/11/25 03:28:47;;;;;;;18.60;10.27;;;6.50;99.90;;;;;;5018663;28;20117;-73
2021/11/25 03:31:18;;;;;;;14.85;9.50;;;6.50;99.90;;;;;;5018879;28;20108;-74
2021/11/25 03:33:44;;;;;;;13.82;9.52;;;6.50;99.90;;;;;;5016519;28;20075;-73
2021/11/25 03:36:10;;;;;;;16.52;9.48;;;6.50;99.90;;;;;;5022885;28;20416;-74
2021/11/25 03:38:37;;;;;;;15.85;9.45;;;6.50;99.90;;;;;;5017458;28;20052;-74
2021/11/25 03:41:05;;;;;;;14.02;9.10;;;6.50;99.90;;;;;;5017866;28;20032;-73
2021/11/25 03:43:31;;;;;;;16.40;9.77;;;6.50;99.90;;;;;;5000542;28;20053;-74
2021/11/25 03:45:57;;;;;;;13.20;8.57;;;6.50;99.90;;;;;;5017092;28;20520;-74
2021/11/25 03:48:28;;;;;;;16.23;9.20;;;6.50;99.90;;;;;;5023968;28;20101;-73
2021/11/25 03:50:55;;;;;;;13.25;9.35;;;6.50;99.90;;;;;;5012355;28;20124;-74
2021/11/25 03:53:21;;;;;;;13.35;8.80;;;6.50;99.90;;;;;;5018376;28;20551;-73
2021/11/25 03:55:46;;;;;;;14.15;8.77;;;6.50;99.90;;;;;;5012109;28;20036;-74
2021/11/25 03:58:12;;;;;;;14.65;8.60;;;6.50;99.90;;;;;;5027576;28;20052;-74
2021/11/25 04:00:38;;;;;;;12.07;8.63;;;6.50;99.90;;;;;;5024795;28;20030;-74
2021/11/25 04:03:04;;;;;;;17.30;9.70;;;6.50;99.90;;;;;;5016644;28;20520;-74
2021/11/25 04:05:31;;;;;;;13.73;9.23;;;6.50;99.90;;;;;;5015102;28;20041;-73
2021/11/25 04:07:57;;;;;;;12.63;8.68;;;6.50;99.90;;;;;;5013498;28;20105;-74
2021/11/25 04:10:23;;;;;;;15.15;9.45;;;6.60;99.90;;;;;;5017202;28;20041;-73
2021/11/25 04:12:49;;;;;;;14.68;9.13;;;6.50;99.90;;;;;;5022238;28;20116;-74
2021/11/25 04:15:16;;;;;;;14.48;9.07;;;6.50;99.90;;;;;;5020458;28;20121;-73
2021/11/25 04:17:42;;;;;;;14.43;9.25;;;6.50;99.90;;;;;;5031216;28;20030;-74
2021/11/25 04:20:09;;;;;;;15.50;9.40;;;6.60;99.90;;;;;;5001044;28;20037;-73
2021/11/25 04:22:35;;;;;;;12.85;8.68;;;6.60;99.90;;;;;;5019948;28;20033;-73
2021/11/25 04:25:02;;;;;;;13.05;8.70;;;6.60;99.90;;;;;;5018171;28;20022;-74
2021/11/25 04:27:28;;;;;;;14.38;8.90;;;6.50;99.90;;;;;;5026433;28;20036;-74
2021/11/25 04:38:01;;;;;;;15.75;9.60;;;6.60;99.90;;;;;;5013644;28;20096;-73
2021/11/25 04:40:27;;;;;;;14.68;8.77;;;6.50;99.90;;;;;;5019839;28;20526;-74
2021/11/25 04:42:53;;;;;;;16.95;10.30;;;6.50;99.90;;;;;;5019454;28;20064;-75
2021/11/25 04:45:18;;;;;;;13.18;8.82;;;6.60;99.90;;;;;;5017436;28;20899;-74
2021/11/25 04:47:44;;;;;;;15.48;9.63;;;6.60;99.90;;;;;;5023140;28;20053;-74
2021/11/25 04:50:10;;;;;;;15.73;10.60;;;6.50;99.90;;;;;;5023369;28;20038;-73
2021/11/25 04:52:36;;;;;;;14.65;9.93;;;6.50;99.90;;;;;;5023647;28;20172;-74
2021/11/25 04:55:02;;;;;;;14.75;9.32;;;6.40;99.90;;;;;;5020240;28;20041;-74
2021/11/25 04:57:28;;;;;;;16.60;9.52;;;6.40;99.90;;;;;;5005313;28;20021;-74
2021/11/25 04:59:53;;;;;;;16.35;10.18;;;6.40;99.90;;;;;;5018169;28;20025;-74
2021/11/25 05:02:19;;;;;;;17.35;10.73;;;6.40;99.90;;;;;;5002416;28;20030;-74
2021/11/25 05:04:45;;;;;;;14.63;10.27;;;6.50;99.90;;;;;;5019242;28;20022;-73
2021/11/25 05:07:10;;;;;;;17.20;10.70;;;6.50;99.90;;;;;;5016365;28;20022;-74
2021/11/25 05:09:37;;;;;;;16.05;10.65;;;6.50;99.90;;;;;;5021046;28;20466;-73
2021/11/25 05:12:03;;;;;;;17.77;10.70;;;6.50;99.90;;;;;;5015259;28;20040;-73
2021/11/25 05:14:28;;;;;;;16.73;10.73;;;6.50;99.90;;;;;;5017300;28;20022;-74
2021/11/25 05:16:54;;;;;;;16.23;10.95;;;6.50;99.90;;;;;;5002438;28;20037;-74
2021/11/25 05:19:20;;;;;;;16.88;10.75;;;6.50;99.90;;;;;;5016896;28;20030;-74
2021/11/25 05:21:46;;;;;;;17.83;10.93;;;6.50;99.90;;;;;;5015978;28;20017;-74
2021/11/25 05:24:12;;;;;;;15.23;9.85;;;6.40;99.90;;;;;;5022098;28;20053;-74
2021/11/25 05:26:38;;;;;;;17.05;10.20;;;6.50;99.90;;;;;;5000299;28;20064;-74
2021/11/25 05:29:04;;;;;;;23.75;11.93;;;6.50;99.90;;;;;;5012566;28;20049;-74
2021/11/25 05:31:29;;;;;;;17.67;10.98;;;6.50;99.90;;;;;;5014448;28;20034;-74
2021/11/25 05:33:55;;;;;;;18.90;11.23;;;6.40;99.90;;;;;;5029883;28;20049;-73
2021/11/25 05:36:21;;;;;;;20.35;11.98;;;6.40;99.90;;;;;;5006750;28;20041;-73
2021/11/25 05:38:47;;;;;;;16.85;10.30;;;6.50;99.90;;;;;;5017788;28;20080;-73
2021/11/25 05:41:12;;;;;;;19.83;11.68;;;6.40;99.90;;;;;;5018781;28;20032;-73
2021/11/25 05:43:38;;;;;;;20.90;11.57;;;6.40;99.90;;;;;;5015069;28;20034;-73
2021/11/25 05:46:04;;;;;;;19.02;11.63;;;6.40;99.90;;;;;;5018107;28;20958;-73
2021/11/25 05:48:30;;;;;;;20.15;12.38;;;6.40;99.90;;;;;;5021269;28;20021;-74
2021/11/25 05:50:55;;;;;;;17.88;11.50;;;6.30;99.90;;;;;;5020491;28;20042;-74
2021/11/25 05:53:21;;;;;;;20.48;12.00;;;6.30;99.90;;;;;;5021744;28;20040;-71
2021/11/25 05:55:48;;;;;;;17.77;11.23;;;6.40;99.90;;;;;;5030399;28;20145;-74
2021/11/25 05:58:14;;;;;;;18.65;11.98;;;6.40;99.90;;;;;;5012264;28;20054;-75
2021/11/25 06:00:41;;;;;;;16.95;10.73;;;6.30;99.90;;;;;;5011881;28;20030;-74
2021/11/25 06:03:07;;;;;;;16.42;11.07;;;6.30;99.90;;;;;;4997362;28;20022;-74
2021/11/25 06:05:33;;;;;;;15.93;10.20;;;6.30;99.90;;;;;;5017462;28;20069;-73
2021/11/25 06:08:02;;;;;;;21.83;12.02;;;6.40;99.90;;;;;;5012831;28;20106;-73
2021/11/25 06:10:29;;;;;;;20.00;10.55;;;6.30;99.90;;;;;;5020391;28;20029;-72
2021/11/25 06:12:56;;;;;;;17.88;11.90;;;6.30;99.90;;;;;;5014208;28;20352;-71
2021/11/25 06:15:23;;;;;;;19.30;11.02;;;6.40;99.90;;;;;;5013091;28;20037;-74
2021/11/25 06:17:49;;;;;;;19.02;11.15;;;6.30;99.90;;;;;;5015999;28;20022;-73
2021/11/25 06:20:19;;;;;;;18.17;11.63;;;6.40;99.90;;;;;;5014817;28;20087;-72
2021/11/25 06:22:50;;;;;;;16.60;10.88;;;6.40;99.90;;;;;;5014352;28;20438;-73
2021/11/25 06:25:18;;;;;;;21.45;11.52;;;6.40;99.90;;;;;;5010256;28;20477;-73
2021/11/25 06:27:44;;;;;;;19.13;11.18;;;6.40;99.90;;;;;;5001909;28;20030;-73
2021/11/25 06:30:12;;;;;;;17.55;11.63;;;6.40;99.90;;;;;;5003369;28;20092;-73
2021/11/25 06:32:40;;;;;;;23.13;12.25;;;6.40;99.90;;;;;;5012029;28;20092;-73
2021/11/25 06:35:12;;;;;;;18.48;11.80;;;6.40;99.90;;;;;;5014050;28;20034;-73
2021/11/25 06:37:39;;;;;;;19.48;11.55;;;6.40;99.90;;;;;;5015209;28;20030;-73
2021/11/25 06:40:07;;;;;;;19.23;12.02;;;6.40;99.90;;;;;;5014166;28;20113;-73
2021/11/25 06:42:33;;;;;;;16.60;10.98;;;6.40;99.90;;;;;;5018402;28;20420;-73
2021/11/25 06:44:59;;;;;;;19.15;11.88;;;6.40;99.90;;;;;;5014429;28;20056;-73
2021/11/25 06:47:24;;;;;;;19.33;12.18;;;6.40;99.90;;;;;;5017359;28;20031;-74
2021/11/25 06:49:50;;;;;;;20.15;13.02;;;6.40;99.90;;;;;;5023931;28;20025;-74
2021/11/25 06:52:16;;;;;;;22.45;12.57;;;6.40;99.90;;;;;;5019309;28;20029;-73
2021/11/25 06:54:42;;;;;;;18.98;12.63;;;6.40;99.90;;;;;;5018275;28;20104;-74
2021/11/25 06:57:08;;;;;;;21.88;12.90;;;6.30;99.90;;;;;;5017467;28;20113;-74
2021/11/25 06:59:34;;;;;;;22.85;14.48;;;6.20;99.90;;;;;;5020460;28;20038;-74
2021/11/25 07:02:00;;;;;;;18.73;12.40;;;6.20;99.90;;;;;;5021807;28;20022;-74
2021/11/25 07:04:26;;;;;;;22.52;14.38;;;6.20;99.90;;;;;;4994582;28;20018;-74
2021/11/25 07:06:52;;;;;;;20.58;13.18;;;6.20;99.90;;;;;;5020377;28;20112;-74
2021/11/25 07:09:17;;;;;;;18.48;12.70;;;6.20;99.90;;;;;;5013596;28;20037;-73
2021/11/25 07:11:43;;;;;;;24.85;14.95;;;6.20;99.90;;;;;;5015460;28;20064;-75
2021/11/25 07:14:09;;;;;;;21.98;13.35;;;6.20;99.90;;;;;;5015608;28;20487;-75
2021/11/25 07:16:36;;;;;;;22.73;14.45;;;6.20;99.90;;;;;;5015738;28;20030;-75
2021/11/25 07:19:03;;;;;;;23.85;13.05;;;6.20;99.90;;;;;;5014414;28;20483;-75
2021/11/25 07:21:29;;;;;;;22.73;14.02;;;6.50;99.90;;;;;;5013269;28;20022;-74
2021/11/25 07:23:55;;;;;;;20.40;13.82;;;6.70;99.90;;;;;;5018558;28;20037;-74
2021/11/25 07:26:21;;;;;;;21.80;14.13;;;6.70;99.90;;;;;;4998939;28;20057;-75
2021/11/25 07:28:47;;;;;;;24.23;14.73;;;6.60;99.90;;;;;;5014655;28;20065;-75
2021/11/25 07:31:13;;;;;;;25.25;14.88;;;6.40;99.90;;;;;;5021575;28;20050;-75
2021/11/25 07:33:40;;;;;;;23.83;14.90;;;6.30;99.90;;;;;;5023554;28;20076;-75
2021/11/25 07:36:06;;;;;;;27.88;15.63;;;6.20;99.90;;;;;;5015101;28;20030;-74
2021/11/25 07:38:32;;;;;;;27.67;16.35;;;6.10;99.90;;;;;;5026532;28;20025;-74
2021/11/25 07:40:59;;;;;;;27.25;16.20;;;6.10;99.90;;;;;;5024918;28;20570;-73
2021/11/25 07:43:28;;;;;;;26.13;15.55;;;6.10;99.90;;;;;;5018657;28;20492;-74
2021/11/25 07:45:56;;;;;;;28.38;16.77;;;6.10;99.90;;;;;;5019027;28;20030;-74
2021/11/25 07:48:23;;;;;;;25.92;15.95;;;6.00;99.90;;;;;;5017993;28;20583;-73
2021/11/25 07:50:49;;;;;;;28.95;16.52;;;6.00;99.90;;;;;;5020544;28;20112;-74
2021/11/25 07:53:14;;;;;;;25.50;15.98;;;6.10;99.90;;;;;;5018907;28;20184;-73
2021/11/25 07:55:40;;;;;;;27.33;15.55;;;6.10;99.90;;;;;;5004654;28;20026;-73
2021/11/25 07:58:06;;;;;;;30.63;16.65;;;6.10;99.90;;;;;;5012662;28;20025;-74
2021/11/25 08:00:32;;;;;;;26.45;15.98;;;6.10;99.90;;;;;;5011403;28;20395;-74
2021/11/25 08:02:58;;;;;;;30.77;17.42;;;6.20;99.90;;;;;;5017123;28;20034;-75
2021/11/25 08:05:25;;;;;;;27.48;15.90;;;6.10;99.90;;;;;;5014993;28;20025;-74
2021/11/25 08:07:56;;;;;;;30.38;17.38;;;6.10;99.90;;;;;;5018707;28;20028;-72
2021/11/25 08:10:23;;;;;;;31.10;17.75;;;6.10;99.90;;;;;;5020237;28;20498;-75
2021/11/25 08:12:49;;;;;;;32.03;19.25;;;6.10;99.90;;;;;;5020217;28;20063;-74
2021/11/25 08:15:16;;;;;;;36.17;19.17;;;6.20;99.90;;;;;;5024647;28;20392;-74
2021/11/25 08:17:42;;;;;;;36.22;19.58;;;6.20;99.90;;;;;;5022605;28;20084;-74
2021/11/25 08:20:10;;;;;;;31.75;18.65;;;6.20;99.90;;;;;;5019053;28;20052;-75
2021/11/25 08:22:36;;;;;;;38.25;19.27;;;6.20;99.90;;;;;;5018214;28;20029;-74
2021/11/25 08:25:05;;;;;;;32.03;18.63;;;6.20;99.90;;;;;;5021156;28;20025;-73
2021/11/25 08:27:31;;;;;;;35.67;19.48;;;6.20;99.90;;;;;;5013203;28;20029;-75
2021/11/25 08:29:57;;;;;;;31.58;17.88;;;6.20;99.90;;;;;;5013508;28;20056;-74
2021/11/25 08:32:23;;;;;;;36.83;20.13;;;6.10;99.90;;;;;;5017372;28;20050;-74
2021/11/25 08:34:49;;;;;;;34.70;19.73;;;6.20;99.90;;;;;;5015098;28;20061;-74
2021/11/25 08:37:15;;;;;;;35.47;20.40;;;6.20;99.90;;;;;;4996395;28;20084;-74
2021/11/25 08:39:40;;;;;;;33.17;18.15;;;6.20;99.90;;;;;;5016266;28;20041;-74
2021/11/25 08:42:07;;;;;;;33.00;18.92;;;6.30;99.90;;;;;;5016332;28;20097;-74
2021/11/25 08:44:34;;;;;;;38.95;20.60;;;6.40;99.90;;;;;;5020195;28;20076;-74
2021/11/25 08:47:01;;;;;;;33.40;19.55;;;6.40;99.90;;;;;;5021298;28;20021;-74
2021/11/25 08:49:28;;;;;;;34.05;18.80;;;6.40;99.90;;;;;;5020724;28;20433;-74
2021/11/25 08:51:54;;;;;;;37.60;21.48;;;6.40;99.90;;;;;;5013332;28;20080;-74
2021/11/25 08:54:21;;;;;;;34.58;19.50;;;6.40;99.90;;;;;;5019968;28;20109;-74
2021/11/25 08:56:48;;;;;;;52.17;21.98;;;6.40;99.90;;;;;;5015112;28;20037;-74
2021/11/25 08:59:14;;;;;;;43.10;21.60;;;6.40;99.90;;;;;;5018340;28;20088;-74
2021/11/25 09:01:40;;;;;;;35.25;19.48;;;6.40;99.90;;;;;;5016709;28;20092;-74
2021/11/25 09:04:06;;;;;;;35.85;20.67;;;6.40;99.90;;;;;;5017079;28;20054;-74
2021/11/25 09:06:31;;;;;;;30.70;18.70;;;6.40;99.90;;;;;;5020811;28;20018;-74
2021/11/25 09:08:58;;;;;;;46.50;21.00;;;6.40;99.90;;;;;;5020912;28;20024;-74
2021/11/25 09:11:24;;;;;;;42.03;20.58;;;6.40;99.90;;;;;;5019046;28;20121;-74
2021/11/25 09:13:50;;;;;;;38.67;19.27;;;6.50;99.90;;;;;;5016027;28;20434;-74
2021/11/25 09:16:17;;;;;;;39.47;20.35;;;6.50;99.90;;;;;;5016238;28;20026;-74
2021/11/25 09:18:43;;;;;;;38.22;19.80;;;6.50;99.90;;;;;;5016742;28;20037;-74
2021/11/25 09:21:09;;;;;;;33.67;18.48;;;6.50;99.90;;;;;;5019023;28;20468;-74
2021/11/25 09:23:36;;;;;;;36.13;19.67;;;6.60;99.90;;;;;;5000200;28;20034;-74
2021/11/25 09:26:01;;;;;;;39.17;21.08;;;6.60;99.90;;;;;;5017101;28;20029;-74
2021/11/25 09:28:27;;;;;;;37.47;20.17;;;6.60;99.90;;;;;;5014302;28;20018;-74
2021/11/25 09:30:54;;;;;;;66.60;22.85;;;6.60;99.90;;;;;;5017487;28;20143;-74
2021/11/25 09:33:21;;;;;;;43.45;23.75;;;6.60;99.90;;;;;;5017675;28;20036;-74
2021/11/25 09:35:47;;;;;;;40.00;20.90;;;6.50;99.90;;;;;;5001514;28;20110;-74
2021/11/25 09:38:14;;;;;;;36.80;20.67;;;6.50;99.90;;;;;;5015174;28;20033;-74
2021/11/25 09:40:42;;;;;;;55.67;23.50;;;6.50;99.90;;;;;;5012006;28;20034;-74
2021/11/25 09:43:11;;;;;;;43.45;22.77;;;6.50;99.90;;;;;;5015486;28;20040;-74
2021/11/25 09:45:39;;;;;;;49.83;22.80;;;6.50;99.90;;;;;;5019605;28;20037;-74
2021/11/25 09:48:10;;;;;;;41.50;20.45;;;6.60;99.90;;;;;;5013224;28;20096;-74
2021/11/25 09:50:40;;;;;;;39.80;21.35;;;6.60;99.90;;;;;;5014301;28;20037;-74
2021/11/25 09:53:09;;;;;;;40.40;22.03;;;6.60;99.90;;;;;;5016506;28;20026;-74
2021/11/25 09:55:37;;;;;;;46.90;22.42;;;6.70;99.90;;;;;;5015573;28;20069;-74
2021/11/25 09:58:03;;;;;;;42.28;21.35;;;6.80;99.90;;;;;;5016195;28;20026;-74
2021/11/25 10:00:32;;;;;;;39.72;22.15;;;6.80;99.90;;;;;;5016362;28;20102;-74
2021/11/25 10:02:59;;;;;;;40.40;22.65;;;6.90;99.90;;;;;;5017629;28;20029;-74
2021/11/25 10:05:25;;;;;;;43.00;23.50;;;6.80;99.90;;;;;;5015621;28;20026;-74
2021/11/25 10:07:51;;;;;;;41.20;22.40;;;6.90;99.90;;;;;;5015443;28;20656;-74
2021/11/25 10:10:29;;;;;;;42.92;23.23;;;7.00;99.90;;;;;;5014914;28;20525;-74
2021/11/25 10:13:19;;;;;;;44.40;23.98;;;7.00;99.90;;;;;;5008403;28;20037;-74
2021/11/25 10:15:47;;;;;;;38.33;22.95;;;6.90;99.90;;;;;;5015092;28;20033;-74
2021/11/25 10:18:16;;;;;;;42.70;21.55;;;7.00;99.90;;;;;;5016703;28;20030;-74
2021/11/25 10:20:48;;;;;;;47.35;24.63;;;7.00;99.90;;;;;;5014672;28;20041;-74
2021/11/25 10:23:29;;;;;;;46.35;24.25;;;7.00;99.90;;;;;;5016059;28;20080;-73
2021/11/25 10:26:07;;;;;;;48.15;24.75;;;7.00;99.90;;;;;;5017667;28;20058;-73
2021/11/25 10:28:42;;;;;;;45.70;23.92;;;7.00;99.90;;;;;;5015862;28;20030;-73
2021/11/25 10:31:21;;;;;;;49.08;24.08;;;7.00;99.90;;;;;;5018018;28;20033;-73
2021/11/25 10:39:07;;;;;;;43.25;22.85;;;7.10;99.90;;;;;;5024716;28;20479;-73
2021/11/25 10:41:34;;;;;;;49.42;24.42;;;7.10;99.90;;;;;;4997160;28;20041;-73
2021/11/25 10:44:09;;;;;;;46.60;24.42;;;7.10;99.90;;;;;;5016050;28;20018;-73
2021/11/25 10:46:59;;;;;;;45.20;23.80;;;7.00;99.90;;;;;;5015404;28;20036;-73
2021/11/25 10:49:51;;;;;;;48.67;24.42;;;7.10;99.90;;;;;;5016649;28;20077;-74
2021/11/25 10:52:29;;;;;;;46.55;23.67;;;7.20;99.90;;;;;;5009975;28;20042;-75
2021/11/25 10:55:03;;;;;;;46.40;23.90;;;7.20;99.90;;;;;;5017098;28;20136;-72
2021/11/25 10:57:47;;;;;;;49.47;25.83;;;7.20;99.90;;;;;;5017069;28;20084;-74
2021/11/25 11:00:25;;;;;;;41.35;22.27;;;7.00;99.90;;;;;;4999733;28;20074;-73
2021/11/25 11:03:14;;;;;;;48.92;26.20;;;7.00;99.90;;;;;;5019520;28;20108;-73
2021/11/25 11:05:56;;;;;;;49.88;25.80;;;7.00;99.90;;;;;;5020283;28;20126;-74
2021/11/25 11:08:24;;;;;;;45.33;25.40;;;7.00;99.90;;;;;;5016546;28;20028;-75
2021/11/25 11:11:11;;;;;;;45.92;24.55;;;7.00;99.90;;;;;;5021338;28;20526;-73
2021/11/25 11:13:48;;;;;;;55.53;26.90;;;6.90;99.90;;;;;;5016732;28;20131;-74
2021/11/25 11:19:01;;;;;;;48.80;25.27;;;6.80;99.90;;;;;;5004700;28;20153;-73
2021/11/25 11:21:38;;;;;;;56.58;27.85;;;6.80;99.90;;;;;;5018408;28;20037;-75
2021/11/25 11:24:14;;;;;;;52.03;26.73;;;6.80;99.90;;;;;;5015176;28;20030;-75
2021/11/25 11:27:09;;;;;;;64.63;30.27;;;6.80;99.90;;;;;;5021199;28;20388;-75
2021/11/25 11:29:37;;;;;;;60.53;29.08;;;6.90;99.90;;;;;;5015584;28;20103;-76
2021/11/25 11:32:06;;;;;;;55.63;27.10;;;6.80;99.90;;;;;;5017502;28;20121;-75
2021/11/25 11:34:32;;;;;;;51.42;26.67;;;6.80;99.90;;;;;;5016793;28;20026;-75
2021/11/25 11:37:00;;;;;;;59.78;29.75;;;6.80;99.90;;;;;;5020460;28;20018;-75
2021/11/25 11:39:28;;;;;;;52.95;26.42;;;6.80;99.90;;;;;;5021255;28;20072;-75
2021/11/25 11:41:57;;;;;;;60.97;29.25;;;6.90;99.90;;;;;;5020126;28;20021;-75
2021/11/25 11:44:24;;;;;;;59.85;30.85;;;6.90;99.90;;;;;;5016792;28;20013;-75
2021/11/25 11:46:54;;;;;;;61.67;29.42;;;6.80;99.90;;;;;;5022307;28;20022;-75
2021/11/25 11:49:21;;;;;;;57.10;28.98;;;6.80;99.90;;;;;;5023511;28;20029;-75
2021/11/25 11:52:06;;;;;;;58.85;29.10;;;6.70;99.90;;;;;;5019622;28;20052;-75
2021/11/25 11:54:44;;;;;;;57.45;29.48;;;6.70;99.90;;;;;;5016612;28;20077;-75
2021/11/25 11:57:39;;;;;;;58.55;28.52;;;6.70;99.90;;;;;;5016207;28;20030;-74
2021/11/25 12:00:28;;;;;;;60.55;29.05;;;6.70;99.90;;;;;;5013253;28;20058;-74
2021/11/25 12:02:57;;;;;;;55.05;25.85;;;6.70;99.90;;;;;;5016528;28;20056;-76
2021/11/25 12:05:43;;;;;;;58.88;27.52;;;6.70;99.90;;;;;;4994677;28;20026;-77
2021/11/25 12:08:21;;;;;;;57.45;26.98;;;6.70;99.90;;;;;;5000802;28;20049;-75
2021/11/25 12:10:58;;;;;;;59.25;27.67;;;6.60;99.90;;;;;;5015705;28;20293;-75
2021/11/25 12:13:44;;;;;;;56.97;27.65;;;6.60;99.90;;;;;;5019164;28;20026;-75
2021/11/25 12:16:19;;;;;;;58.83;28.80;;;6.60;99.90;;;;;;5015894;28;20067;-75
2021/11/25 12:18:55;;;;;;;50.55;25.20;;;6.60;99.90;;;;;;5020545;28;20030;-75
2021/11/25 12:21:45;;;;;;;51.67;26.27;;;6.60;99.90;;;;;;5017122;28;20022;-75
2021/11/25 12:24:30;;;;;;;50.40;24.02;;;6.50;99.90;;;;;;5013536;28;20030;-75
2021/11/25 12:27:13;;;;;;;50.50;24.52;;;6.50;99.90;;;;;;5012720;28;20434;-76
2021/11/25 12:29:49;;;;;;;48.03;24.73;;;6.60;99.90;;;;;;5018217;28;20506;-75
2021/11/25 12:32:41;;;;;;;42.85;22.73;;;6.60;99.90;;;;;;5016532;28;20088;-75
2021/11/25 12:35:25;;;;;;;42.17;22.05;;;6.70;99.90;;;;;;5017313;28;20036;-75
2021/11/25 12:38:01;;;;;;;50.80;23.77;;;6.70;99.90;;;;;;5016326;28;20064;-76
2021/11/25 12:40:26;;;;;;;45.22;22.40;;;6.80;99.90;;;;;;5015957;28;20025;-76
2021/11/25 12:43:01;;;;;;;44.83;23.80;;;6.80;99.90;;;;;;5022947;28;20021;-74
2021/11/25 12:45:37;;;;;;;41.90;21.85;;;6.80;99.90;;;;;;5014626;28;20018;-74
2021/11/25 12:48:05;;;;;;;44.22;22.17;;;6.80;99.90;;;;;;5021560;28;20038;-80
2021/11/25 12:50:37;;;;;;;49.80;25.20;;;6.80;99.90;;;;;;5011921;28;20014;-76
2021/11/25 12:53:11;;;;;;;63.10;24.85;;;6.80;99.90;;;;;;5008285;28;20026;-76
2021/11/25 12:55:38;;;;;;;43.47;22.30;;;6.70;99.90;;;;;;5003437;28;20021;-76
2021/11/25 12:58:05;;;;;;;48.28;24.58;;;6.80;99.90;;;;;;5020132;28;20116;-75
2021/11/25 13:00:33;;;;;;;48.67;24.25;;;6.70;99.90;;;;;;5015203;28;20529;-75
2021/11/25 13:03:10;;;;;;;50.50;23.95;;;6.70;99.90;;;;;;4999928;28;20554;-75